sensor_id;sensor_type;location;lat;lon;timestamp;P1;durP1;ratioP1;P2;durP2;ratioP2
10479;SDS011;12789;42.610;23.040;2023-07-13T00:02:13;18.63;;;6.13;;
10479;SDS011;12789;42.610;23.040;2023-07-13T00:04:39;17.88;;;5.47;;
10479;SDS011;12789;42.610;23.040;2023-07-13T00:07:06;18.15;;;6.22;;
10479;SDS011;12789;42.610;23.040;2023-07-13T00:09:33;12.75;;;6.10;;
10479;SDS011;12789;42.610;23.040;2023-07-13T00:12:00;10.32;;;4.80;;
10479;SDS011;12789;42.610;23.040;2023-07-13T00:14:28;11.73;;;5.03;;
10479;SDS011;12789;42.610;23.040;2023-07-13T00:16:55;14.15;;;5.00;;
10479;SDS011;12789;42.610;23.040;2023-07-13T00:19:24;10.55;;;4.50;;
10479;SDS011;12789;42.610;23.040;2023-07-13T00:21:50;10.93;;;4.90;;
10479;SDS011;12789;42.610;23.040;2023-07-13T00:24:20;7.95;;;4.75;;
10479;SDS011;12789;42.610;23.040;2023-07-13T00:26:49;8.13;;;4.60;;
10479;SDS011;12789;42.610;23.040;2023-07-13T00:29:15;14.93;;;4.25;;
10479;SDS011;12789;42.610;23.040;2023-07-13T00:31:42;6.05;;;4.32;;
10479;SDS011;12789;42.610;23.040;2023-07-13T00:34:09;10.75;;;4.28;;
10479;SDS011;12789;42.610;23.040;2023-07-13T00:36:36;5.43;;;4.40;;
10479;SDS011;12789;42.610;23.040;2023-07-13T00:39:03;8.65;;;4.53;;
10479;SDS011;12789;42.610;23.040;2023-07-13T00:41:30;12.35;;;5.38;;
10479;SDS011;12789;42.610;23.040;2023-07-13T00:43:57;12.80;;;4.60;;
10479;SDS011;12789;42.610;23.040;2023-07-13T00:46:25;16.67;;;5.97;;
10479;SDS011;12789;42.610;23.040;2023-07-13T00:48:51;12.55;;;5.28;;
10479;SDS011;12789;42.610;23.040;2023-07-13T00:51:23;13.63;;;4.82;;
10479;SDS011;12789;42.610;23.040;2023-07-13T00:53:52;11.27;;;5.57;;
10479;SDS011;12789;42.610;23.040;2023-07-13T00:56:19;15.80;;;5.47;;
10479;SDS011;12789;42.610;23.040;2023-07-13T00:58:45;14.50;;;6.25;;
10479;SDS011;12789;42.610;23.040;2023-07-13T01:01:12;17.42;;;5.90;;
10479;SDS011;12789;42.610;23.040;2023-07-13T01:03:39;17.08;;;5.60;;
10479;SDS011;12789;42.610;23.040;2023-07-13T01:06:06;19.20;;;5.93;;
10479;SDS011;12789;42.610;23.040;2023-07-13T01:08:33;16.13;;;5.70;;
10479;SDS011;12789;42.610;23.040;2023-07-13T01:11:01;13.18;;;5.45;;
10479;SDS011;12789;42.610;23.040;2023-07-13T01:13:28;15.43;;;6.15;;
10479;SDS011;12789;42.610;23.040;2023-07-13T01:15:55;13.77;;;5.72;;
10479;SDS011;12789;42.610;23.040;2023-07-13T01:18:22;9.00;;;5.20;;
10479;SDS011;12789;42.610;23.040;2023-07-13T01:20:52;16.02;;;5.65;;
10479;SDS011;12789;42.610;23.040;2023-07-13T01:23:19;13.55;;;5.43;;
10479;SDS011;12789;42.610;23.040;2023-07-13T01:25:45;15.93;;;5.78;;
10479;SDS011;12789;42.610;23.040;2023-07-13T01:28:12;9.52;;;5.40;;
10479;SDS011;12789;42.610;23.040;2023-07-13T01:30:39;9.82;;;5.55;;
10479;SDS011;12789;42.610;23.040;2023-07-13T01:33:06;7.90;;;4.85;;
10479;SDS011;12789;42.610;23.040;2023-07-13T01:35:33;7.80;;;5.38;;
10479;SDS011;12789;42.610;23.040;2023-07-13T01:38:01;9.40;;;4.68;;
10479;SDS011;12789;42.610;23.040;2023-07-13T01:40:28;10.35;;;4.88;;
10479;SDS011;12789;42.610;23.040;2023-07-13T01:42:55;8.98;;;4.63;;
10479;SDS011;12789;42.610;23.040;2023-07-13T01:45:21;7.40;;;4.75;;
10479;SDS011;12789;42.610;23.040;2023-07-13T01:47:48;9.30;;;4.72;;
10479;SDS011;12789;42.610;23.040;2023-07-13T01:50:14;6.38;;;5.32;;
10479;SDS011;12789;42.610;23.040;2023-07-13T01:52:41;7.22;;;5.43;;
10479;SDS011;12789;42.610;23.040;2023-07-13T01:55:09;10.32;;;5.35;;
10479;SDS011;12789;42.610;23.040;2023-07-13T01:57:35;8.88;;;5.30;;
10479;SDS011;12789;42.610;23.040;2023-07-13T02:00:02;11.18;;;5.50;;
10479;SDS011;12789;42.610;23.040;2023-07-13T02:02:29;17.75;;;5.80;;
10479;SDS011;12789;42.610;23.040;2023-07-13T02:04:56;16.08;;;6.40;;
10479;SDS011;12789;42.610;23.040;2023-07-13T02:07:22;23.15;;;7.45;;
10479;SDS011;12789;42.610;23.040;2023-07-13T02:09:49;24.23;;;7.15;;
10479;SDS011;12789;42.610;23.040;2023-07-13T02:12:17;16.73;;;6.47;;
10479;SDS011;12789;42.610;23.040;2023-07-13T02:14:43;20.88;;;6.80;;
10479;SDS011;12789;42.610;23.040;2023-07-13T02:17:10;22.17;;;6.68;;
10479;SDS011;12789;42.610;23.040;2023-07-13T02:19:36;14.23;;;6.00;;
10479;SDS011;12789;42.610;23.040;2023-07-13T02:22:03;13.75;;;6.13;;
10479;SDS011;12789;42.610;23.040;2023-07-13T02:24:30;13.52;;;5.88;;
10479;SDS011;12789;42.610;23.040;2023-07-13T02:26:56;15.43;;;6.43;;
10479;SDS011;12789;42.610;23.040;2023-07-13T02:29:24;15.95;;;6.20;;
10479;SDS011;12789;42.610;23.040;2023-07-13T02:31:50;18.58;;;7.00;;
10479;SDS011;12789;42.610;23.040;2023-07-13T02:34:17;15.82;;;6.75;;
10479;SDS011;12789;42.610;23.040;2023-07-13T02:36:44;14.88;;;6.72;;
10479;SDS011;12789;42.610;23.040;2023-07-13T02:39:11;17.50;;;7.03;;
10479;SDS011;12789;42.610;23.040;2023-07-13T02:41:38;12.23;;;6.50;;
10479;SDS011;12789;42.610;23.040;2023-07-13T02:44:04;16.55;;;6.68;;
10479;SDS011;12789;42.610;23.040;2023-07-13T02:46:36;12.73;;;6.70;;
10479;SDS011;12789;42.610;23.040;2023-07-13T02:49:03;23.70;;;7.13;;
10479;SDS011;12789;42.610;23.040;2023-07-13T02:51:32;21.02;;;5.90;;
10479;SDS011;12789;42.610;23.040;2023-07-13T02:53:59;18.95;;;6.75;;
10479;SDS011;12789;42.610;23.040;2023-07-13T02:56:27;24.63;;;6.35;;
10479;SDS011;12789;42.610;23.040;2023-07-13T02:58:54;19.95;;;6.88;;
10479;SDS011;12789;42.610;23.040;2023-07-13T03:01:21;17.20;;;6.85;;
10479;SDS011;12789;42.610;23.040;2023-07-13T03:03:49;19.70;;;6.90;;
10479;SDS011;12789;42.610;23.040;2023-07-13T03:06:16;22.58;;;6.88;;
10479;SDS011;12789;42.610;23.040;2023-07-13T03:08:43;22.10;;;8.38;;
10479;SDS011;12789;42.610;23.040;2023-07-13T03:11:10;22.40;;;6.50;;
10479;SDS011;12789;42.610;23.040;2023-07-13T03:13:37;26.67;;;7.13;;
10479;SDS011;12789;42.610;23.040;2023-07-13T03:16:04;20.23;;;7.18;;
10479;SDS011;12789;42.610;23.040;2023-07-13T03:18:30;15.77;;;7.10;;
10479;SDS011;12789;42.610;23.040;2023-07-13T03:20:58;23.77;;;6.88;;
10479;SDS011;12789;42.610;23.040;2023-07-13T03:23:25;29.20;;;7.80;;
10479;SDS011;12789;42.610;23.040;2023-07-13T03:26:00;21.40;;;8.00;;
10479;SDS011;12789;42.610;23.040;2023-07-13T03:28:27;27.17;;;7.32;;
10479;SDS011;12789;42.610;23.040;2023-07-13T03:30:58;21.83;;;7.65;;
10479;SDS011;12789;42.610;23.040;2023-07-13T03:33:25;21.73;;;7.50;;
10479;SDS011;12789;42.610;23.040;2023-07-13T03:35:52;26.58;;;7.65;;
10479;SDS011;12789;42.610;23.040;2023-07-13T03:38:20;31.42;;;7.40;;
10479;SDS011;12789;42.610;23.040;2023-07-13T03:40:46;28.10;;;8.10;;
10479;SDS011;12789;42.610;23.040;2023-07-13T03:43:13;18.13;;;7.20;;
10479;SDS011;12789;42.610;23.040;2023-07-13T03:45:39;24.60;;;8.27;;
10479;SDS011;12789;42.610;23.040;2023-07-13T03:48:06;27.40;;;7.60;;
10479;SDS011;12789;42.610;23.040;2023-07-13T03:50:32;23.30;;;7.10;;
10479;SDS011;12789;42.610;23.040;2023-07-13T03:52:59;32.85;;;8.00;;
10479;SDS011;12789;42.610;23.040;2023-07-13T03:55:27;27.80;;;7.60;;
10479;SDS011;12789;42.610;23.040;2023-07-13T03:57:57;18.20;;;7.38;;
10479;SDS011;12789;42.610;23.040;2023-07-13T04:00:24;20.20;;;7.47;;
10479;SDS011;12789;42.610;23.040;2023-07-13T04:02:50;18.30;;;6.85;;
10479;SDS011;12789;42.610;23.040;2023-07-13T04:05:17;31.02;;;8.25;;
10479;SDS011;12789;42.610;23.040;2023-07-13T04:07:44;24.02;;;8.02;;
10479;SDS011;12789;42.610;23.040;2023-07-13T04:10:10;20.17;;;7.65;;
10479;SDS011;12789;42.610;23.040;2023-07-13T04:12:38;22.95;;;7.65;;
10479;SDS011;12789;42.610;23.040;2023-07-13T04:15:06;23.83;;;7.57;;
10479;SDS011;12789;42.610;23.040;2023-07-13T04:17:33;22.60;;;7.50;;
10479;SDS011;12789;42.610;23.040;2023-07-13T04:19:59;17.85;;;7.32;;
10479;SDS011;12789;42.610;23.040;2023-07-13T04:22:26;19.33;;;7.15;;
10479;SDS011;12789;42.610;23.040;2023-07-13T04:24:52;31.15;;;8.52;;
10479;SDS011;12789;42.610;23.040;2023-07-13T04:27:19;25.80;;;8.23;;
10479;SDS011;12789;42.610;23.040;2023-07-13T04:29:47;14.10;;;5.95;;
10479;SDS011;12789;42.610;23.040;2023-07-13T04:32:13;15.65;;;5.80;;
10479;SDS011;12789;42.610;23.040;2023-07-13T04:34:40;19.15;;;6.32;;
10479;SDS011;12789;42.610;23.040;2023-07-13T04:37:06;18.83;;;6.43;;
10479;SDS011;12789;42.610;23.040;2023-07-13T04:39:33;28.63;;;6.55;;
10479;SDS011;12789;42.610;23.040;2023-07-13T04:41:59;25.58;;;7.20;;
10479;SDS011;12789;42.610;23.040;2023-07-13T04:44:26;39.10;;;7.28;;
10479;SDS011;12789;42.610;23.040;2023-07-13T04:46:53;35.28;;;7.32;;
10479;SDS011;12789;42.610;23.040;2023-07-13T04:49:20;36.05;;;7.63;;
10479;SDS011;12789;42.610;23.040;2023-07-13T04:51:46;31.23;;;7.28;;
10479;SDS011;12789;42.610;23.040;2023-07-13T04:54:13;33.75;;;7.45;;
10479;SDS011;12789;42.610;23.040;2023-07-13T04:56:39;40.83;;;8.07;;
10479;SDS011;12789;42.610;23.040;2023-07-13T04:59:06;20.50;;;6.72;;
10479;SDS011;12789;42.610;23.040;2023-07-13T05:01:32;16.77;;;6.68;;
10479;SDS011;12789;42.610;23.040;2023-07-13T05:04:00;15.15;;;6.30;;
10479;SDS011;12789;42.610;23.040;2023-07-13T05:06:27;21.35;;;6.68;;
10479;SDS011;12789;42.610;23.040;2023-07-13T05:08:53;14.77;;;5.97;;
10479;SDS011;12789;42.610;23.040;2023-07-13T05:11:20;22.48;;;6.72;;
10479;SDS011;12789;42.610;23.040;2023-07-13T05:13:47;20.80;;;7.05;;
10479;SDS011;12789;42.610;23.040;2023-07-13T05:16:13;14.05;;;6.65;;
10479;SDS011;12789;42.610;23.040;2023-07-13T05:18:40;13.35;;;5.95;;
10479;SDS011;12789;42.610;23.040;2023-07-13T05:21:09;14.63;;;5.15;;
10479;SDS011;12789;42.610;23.040;2023-07-13T05:23:35;12.77;;;5.55;;
10479;SDS011;12789;42.610;23.040;2023-07-13T05:26:02;10.82;;;5.40;;
10479;SDS011;12789;42.610;23.040;2023-07-13T05:28:29;13.57;;;5.75;;
10479;SDS011;12789;42.610;23.040;2023-07-13T05:30:56;14.88;;;6.40;;
10479;SDS011;12789;42.610;23.040;2023-07-13T05:33:23;19.52;;;6.47;;
10479;SDS011;12789;42.610;23.040;2023-07-13T05:35:49;14.95;;;6.07;;
10479;SDS011;12789;42.610;23.040;2023-07-13T05:38:17;16.45;;;6.68;;
10479;SDS011;12789;42.610;23.040;2023-07-13T05:40:44;24.92;;;6.68;;
10479;SDS011;12789;42.610;23.040;2023-07-13T05:43:11;20.48;;;6.28;;
10479;SDS011;12789;42.610;23.040;2023-07-13T05:45:38;14.65;;;6.75;;
10479;SDS011;12789;42.610;23.040;2023-07-13T05:48:04;20.50;;;6.70;;
10479;SDS011;12789;42.610;23.040;2023-07-13T05:50:31;12.70;;;6.47;;
10479;SDS011;12789;42.610;23.040;2023-07-13T05:52:57;17.38;;;6.28;;
10479;SDS011;12789;42.610;23.040;2023-07-13T05:55:25;16.23;;;6.85;;
10479;SDS011;12789;42.610;23.040;2023-07-13T05:57:52;17.73;;;5.97;;
10479;SDS011;12789;42.610;23.040;2023-07-13T06:00:18;13.27;;;6.30;;
10479;SDS011;12789;42.610;23.040;2023-07-13T06:02:45;9.93;;;5.93;;
10479;SDS011;12789;42.610;23.040;2023-07-13T06:05:12;25.58;;;7.32;;
10479;SDS011;12789;42.610;23.040;2023-07-13T06:07:38;12.88;;;6.07;;
10479;SDS011;12789;42.610;23.040;2023-07-13T06:10:05;20.75;;;7.28;;
10479;SDS011;12789;42.610;23.040;2023-07-13T06:12:33;15.98;;;6.88;;
10479;SDS011;12789;42.610;23.040;2023-07-13T06:14:59;17.88;;;6.75;;
10479;SDS011;12789;42.610;23.040;2023-07-13T06:17:26;13.60;;;7.15;;
10479;SDS011;12789;42.610;23.040;2023-07-13T06:19:52;22.25;;;8.00;;
10479;SDS011;12789;42.610;23.040;2023-07-13T06:22:19;19.38;;;8.07;;
10479;SDS011;12789;42.610;23.040;2023-07-13T06:24:45;23.52;;;7.43;;
10479;SDS011;12789;42.610;23.040;2023-07-13T06:27:12;14.77;;;7.10;;
10479;SDS011;12789;42.610;23.040;2023-07-13T06:29:40;15.07;;;5.22;;
10479;SDS011;12789;42.610;23.040;2023-07-13T06:32:10;21.25;;;7.95;;
10479;SDS011;12789;42.610;23.040;2023-07-13T06:34:36;19.30;;;7.10;;
10479;SDS011;12789;42.610;23.040;2023-07-13T06:37:03;13.43;;;6.90;;
10479;SDS011;12789;42.610;23.040;2023-07-13T06:39:29;19.77;;;7.90;;
10479;SDS011;12789;42.610;23.040;2023-07-13T06:41:56;12.93;;;5.82;;
10479;SDS011;12789;42.610;23.040;2023-07-13T06:44:22;23.20;;;7.95;;
10479;SDS011;12789;42.610;23.040;2023-07-13T06:46:50;23.95;;;7.40;;
10479;SDS011;12789;42.610;23.040;2023-07-13T06:49:17;11.63;;;6.35;;
10479;SDS011;12789;42.610;23.040;2023-07-13T06:51:43;15.90;;;6.20;;
10479;SDS011;12789;42.610;23.040;2023-07-13T06:54:10;24.02;;;7.40;;
10479;SDS011;12789;42.610;23.040;2023-07-13T06:56:36;24.27;;;7.85;;
10479;SDS011;12789;42.610;23.040;2023-07-13T06:59:03;15.63;;;6.43;;
10479;SDS011;12789;42.610;23.040;2023-07-13T07:01:29;26.10;;;7.97;;
10479;SDS011;12789;42.610;23.040;2023-07-13T07:03:57;35.95;;;7.80;;
10479;SDS011;12789;42.610;23.040;2023-07-13T07:06:24;30.33;;;8.40;;
10479;SDS011;12789;42.610;23.040;2023-07-13T07:08:50;42.85;;;8.18;;
10479;SDS011;12789;42.610;23.040;2023-07-13T07:11:18;35.30;;;7.78;;
10479;SDS011;12789;42.610;23.040;2023-07-13T07:13:45;21.77;;;6.93;;
10479;SDS011;12789;42.610;23.040;2023-07-13T07:16:11;31.92;;;8.23;;
10479;SDS011;12789;42.610;23.040;2023-07-13T07:18:37;31.45;;;6.60;;
10479;SDS011;12789;42.610;23.040;2023-07-13T07:21:05;32.28;;;6.93;;
10479;SDS011;12789;42.610;23.040;2023-07-13T07:23:32;23.58;;;6.35;;
10479;SDS011;12789;42.610;23.040;2023-07-13T07:25:58;20.40;;;6.90;;
10479;SDS011;12789;42.610;23.040;2023-07-13T07:28:25;23.40;;;6.53;;
10479;SDS011;12789;42.610;23.040;2023-07-13T07:30:53;26.73;;;6.63;;
10479;SDS011;12789;42.610;23.040;2023-07-13T07:33:20;26.58;;;7.13;;
10479;SDS011;12789;42.610;23.040;2023-07-13T07:35:47;23.85;;;7.20;;
10479;SDS011;12789;42.610;23.040;2023-07-13T07:38:15;22.02;;;6.88;;
10479;SDS011;12789;42.610;23.040;2023-07-13T07:40:41;21.75;;;6.20;;
10479;SDS011;12789;42.610;23.040;2023-07-13T07:43:08;20.45;;;6.13;;
10479;SDS011;12789;42.610;23.040;2023-07-13T07:45:35;25.10;;;6.22;;
10479;SDS011;12789;42.610;23.040;2023-07-13T07:48:03;25.95;;;6.43;;
10479;SDS011;12789;42.610;23.040;2023-07-13T07:50:30;16.77;;;6.20;;
10479;SDS011;12789;42.610;23.040;2023-07-13T07:52:57;24.35;;;6.20;;
10479;SDS011;12789;42.610;23.040;2023-07-13T07:55:25;7.75;;;5.05;;
10479;SDS011;12789;42.610;23.040;2023-07-13T07:57:52;9.70;;;4.82;;
10479;SDS011;12789;42.610;23.040;2023-07-13T08:00:19;12.50;;;5.60;;
10479;SDS011;12789;42.610;23.040;2023-07-13T08:02:45;9.05;;;5.60;;
10479;SDS011;12789;42.610;23.040;2023-07-13T08:05:12;8.75;;;5.05;;
10479;SDS011;12789;42.610;23.040;2023-07-13T08:07:38;8.13;;;4.80;;
10479;SDS011;12789;42.610;23.040;2023-07-13T08:10:05;12.30;;;5.00;;
10479;SDS011;12789;42.610;23.040;2023-07-13T08:12:34;8.32;;;4.72;;
10479;SDS011;12789;42.610;23.040;2023-07-13T08:15:01;10.93;;;5.28;;
10479;SDS011;12789;42.610;23.040;2023-07-13T08:17:27;4.18;;;3.78;;
10479;SDS011;12789;42.610;23.040;2023-07-13T08:19:54;4.57;;;3.67;;
10479;SDS011;12789;42.610;23.040;2023-07-13T08:22:21;4.47;;;3.65;;
10479;SDS011;12789;42.610;23.040;2023-07-13T08:24:47;6.22;;;3.85;;
10479;SDS011;12789;42.610;23.040;2023-07-13T08:27:21;8.45;;;3.40;;
10479;SDS011;12789;42.610;23.040;2023-07-13T08:29:49;6.47;;;4.18;;
10479;SDS011;12789;42.610;23.040;2023-07-13T08:32:16;9.75;;;4.15;;
10479;SDS011;12789;42.610;23.040;2023-07-13T08:34:43;8.18;;;3.78;;
10479;SDS011;12789;42.610;23.040;2023-07-13T08:37:09;3.95;;;3.63;;
10479;SDS011;12789;42.610;23.040;2023-07-13T08:39:36;8.40;;;3.72;;
10479;SDS011;12789;42.610;23.040;2023-07-13T08:42:04;6.95;;;3.78;;
10479;SDS011;12789;42.610;23.040;2023-07-13T08:47:14;6.03;;;4.13;;
10479;SDS011;12789;42.610;23.040;2023-07-13T08:49:41;7.72;;;3.72;;
10479;SDS011;12789;42.610;23.040;2023-07-13T08:52:11;4.68;;;3.40;;
10479;SDS011;12789;42.610;23.040;2023-07-13T08:54:40;12.13;;;3.47;;
10479;SDS011;12789;42.610;23.040;2023-07-13T08:57:10;5.45;;;3.38;;
10479;SDS011;12789;42.610;23.040;2023-07-13T08:59:38;5.35;;;3.80;;
10479;SDS011;12789;42.610;23.040;2023-07-13T09:02:16;5.30;;;3.95;;
10479;SDS011;12789;42.610;23.040;2023-07-13T09:04:46;7.20;;;3.90;;
10479;SDS011;12789;42.610;23.040;2023-07-13T09:07:14;5.05;;;3.65;;
10479;SDS011;12789;42.610;23.040;2023-07-13T09:09:47;4.32;;;3.95;;
10479;SDS011;12789;42.610;23.040;2023-07-13T09:12:22;4.13;;;3.75;;
10479;SDS011;12789;42.610;23.040;2023-07-13T09:14:56;5.80;;;3.90;;
10479;SDS011;12789;42.610;23.040;2023-07-13T09:17:25;11.52;;;3.60;;
10479;SDS011;12789;42.610;23.040;2023-07-13T09:20:14;4.30;;;3.63;;
10479;SDS011;12789;42.610;23.040;2023-07-13T09:25:53;3.90;;;3.50;;
10479;SDS011;12789;42.610;23.040;2023-07-13T09:28:24;4.78;;;3.45;;
10479;SDS011;12789;42.610;23.040;2023-07-13T09:34:08;5.10;;;4.10;;
10479;SDS011;12789;42.610;23.040;2023-07-13T09:36:41;8.57;;;4.43;;
10479;SDS011;12789;42.610;23.040;2023-07-13T09:39:12;4.18;;;3.85;;
10479;SDS011;12789;42.610;23.040;2023-07-13T09:45:20;3.95;;;3.55;;
10479;SDS011;12789;42.610;23.040;2023-07-13T09:48:13;5.03;;;3.38;;
10479;SDS011;12789;42.610;23.040;2023-07-13T09:57:16;3.80;;;3.38;;
10479;SDS011;12789;42.610;23.040;2023-07-13T10:00:42;4.05;;;3.65;;
10479;SDS011;12789;42.610;23.040;2023-07-13T10:03:25;6.75;;;3.80;;
10479;SDS011;12789;42.610;23.040;2023-07-13T10:09:21;3.80;;;3.28;;
10479;SDS011;12789;42.610;23.040;2023-07-13T10:11:52;5.60;;;3.22;;
10479;SDS011;12789;42.610;23.040;2023-07-13T10:17:12;5.65;;;3.20;;
10479;SDS011;12789;42.610;23.040;2023-07-13T10:19:42;6.40;;;5.00;;
10479;SDS011;12789;42.610;23.040;2023-07-13T10:22:21;4.68;;;3.60;;
10479;SDS011;12789;42.610;23.040;2023-07-13T10:24:57;5.30;;;3.20;;
10479;SDS011;12789;42.610;23.040;2023-07-13T10:27:37;5.32;;;3.08;;
10479;SDS011;12789;42.610;23.040;2023-07-13T10:30:12;3.67;;;3.17;;
10479;SDS011;12789;42.610;23.040;2023-07-13T10:35:28;5.45;;;3.10;;
10479;SDS011;12789;42.610;23.040;2023-07-13T10:38:00;3.90;;;3.38;;
10479;SDS011;12789;42.610;23.040;2023-07-13T10:40:38;5.22;;;4.18;;
10479;SDS011;12789;42.610;23.040;2023-07-13T10:43:09;9.98;;;3.70;;
10479;SDS011;12789;42.610;23.040;2023-07-13T10:45:45;5.50;;;3.30;;
10479;SDS011;12789;42.610;23.040;2023-07-13T10:48:15;4.55;;;3.10;;
10479;SDS011;12789;42.610;23.040;2023-07-13T10:50:49;4.07;;;3.50;;
10479;SDS011;12789;42.610;23.040;2023-07-13T10:53:32;3.25;;;2.95;;
10479;SDS011;12789;42.610;23.040;2023-07-13T10:56:06;7.95;;;3.20;;
10479;SDS011;12789;42.610;23.040;2023-07-13T10:58:40;3.88;;;3.05;;
10479;SDS011;12789;42.610;23.040;2023-07-13T11:01:16;3.90;;;3.50;;
10479;SDS011;12789;42.610;23.040;2023-07-13T11:03:49;4.50;;;3.10;;
10479;SDS011;12789;42.610;23.040;2023-07-13T11:09:30;13.00;;;3.05;;
10479;SDS011;12789;42.610;23.040;2023-07-13T11:12:06;9.30;;;3.45;;
10479;SDS011;12789;42.610;23.040;2023-07-13T11:19:37;5.03;;;3.10;;
10479;SDS011;12789;42.610;23.040;2023-07-13T11:21:52;10.20;;;3.15;;
10479;SDS011;12789;42.610;23.040;2023-07-13T11:45:48;10.45;;;3.65;;
10479;SDS011;12789;42.610;23.040;2023-07-13T11:48:41;4.43;;;3.20;;
10479;SDS011;12789;42.610;23.040;2023-07-13T11:51:15;24.65;;;4.35;;
10479;SDS011;12789;42.610;23.040;2023-07-13T11:54:20;4.40;;;3.20;;
10479;SDS011;12789;42.610;23.040;2023-07-13T11:56:55;15.20;;;4.03;;
10479;SDS011;12789;42.610;23.040;2023-07-13T11:59:30;11.25;;;3.67;;
10479;SDS011;12789;42.610;23.040;2023-07-13T12:05:16;6.50;;;4.07;;
10479;SDS011;12789;42.610;23.040;2023-07-13T12:07:58;11.60;;;4.00;;
10479;SDS011;12789;42.610;23.040;2023-07-13T12:14:35;6.97;;;4.07;;
10479;SDS011;12789;42.610;23.040;2023-07-13T12:17:55;4.88;;;3.10;;
10479;SDS011;12789;42.610;23.040;2023-07-13T12:30:31;6.50;;;3.13;;
10479;SDS011;12789;42.610;23.040;2023-07-13T12:33:35;5.57;;;3.10;;
10479;SDS011;12789;42.610;23.040;2023-07-13T12:43:01;5.35;;;3.30;;
10479;SDS011;12789;42.610;23.040;2023-07-13T13:04:16;5.80;;;3.50;;
10479;SDS011;12789;42.610;23.040;2023-07-13T13:14:06;7.05;;;3.05;;
10479;SDS011;12789;42.610;23.040;2023-07-13T13:29:22;6.45;;;3.25;;
10479;SDS011;12789;42.610;23.040;2023-07-13T13:32:26;9.45;;;3.22;;
10479;SDS011;12789;42.610;23.040;2023-07-13T13:41:26;7.90;;;3.63;;
10479;SDS011;12789;42.610;23.040;2023-07-13T13:54:33;9.48;;;3.38;;
10479;SDS011;12789;42.610;23.040;2023-07-13T13:57:27;6.78;;;3.25;;
10479;SDS011;12789;42.610;23.040;2023-07-13T14:08:29;4.05;;;3.10;;
10479;SDS011;12789;42.610;23.040;2023-07-13T14:10:21;7.60;;;3.38;;
10479;SDS011;12789;42.610;23.040;2023-07-13T14:13:15;9.85;;;3.70;;
10479;SDS011;12789;42.610;23.040;2023-07-13T14:25:17;5.65;;;3.63;;
10479;SDS011;12789;42.610;23.040;2023-07-13T14:37:29;5.35;;;3.30;;
10479;SDS011;12789;42.610;23.040;2023-07-13T14:40:42;9.50;;;3.45;;
10479;SDS011;12789;42.610;23.040;2023-07-13T14:52:55;7.47;;;3.20;;
10479;SDS011;12789;42.610;23.040;2023-07-13T14:58:46;14.23;;;3.53;;
10479;SDS011;12789;42.610;23.040;2023-07-13T15:02:08;6.80;;;3.33;;
10479;SDS011;12789;42.610;23.040;2023-07-13T15:06:04;8.73;;;3.88;;
10479;SDS011;12789;42.610;23.040;2023-07-13T15:07:42;9.50;;;3.50;;
10479;SDS011;12789;42.610;23.040;2023-07-13T15:10:37;6.10;;;3.22;;
10479;SDS011;12789;42.610;23.040;2023-07-13T15:13:41;7.13;;;3.92;;
10479;SDS011;12789;42.610;23.040;2023-07-13T15:16:54;6.03;;;3.60;;
10479;SDS011;12789;42.610;23.040;2023-07-13T15:19:50;5.47;;;3.47;;
10479;SDS011;12789;42.610;23.040;2023-07-13T15:22:59;5.30;;;3.50;;
10479;SDS011;12789;42.610;23.040;2023-07-13T15:25:54;6.22;;;3.35;;
10479;SDS011;12789;42.610;23.040;2023-07-13T15:28:54;9.07;;;3.30;;
10479;SDS011;12789;42.610;23.040;2023-07-13T15:31:22;9.40;;;3.50;;
10479;SDS011;12789;42.610;23.040;2023-07-13T15:33:50;7.75;;;3.15;;
10479;SDS011;12789;42.610;23.040;2023-07-13T15:36:17;8.90;;;3.45;;
10479;SDS011;12789;42.610;23.040;2023-07-13T15:38:46;11.73;;;5.50;;
10479;SDS011;12789;42.610;23.040;2023-07-13T15:41:20;13.35;;;8.02;;
10479;SDS011;12789;42.610;23.040;2023-07-13T15:43:48;8.65;;;4.18;;
10479;SDS011;12789;42.610;23.040;2023-07-13T15:46:15;13.05;;;3.80;;
10479;SDS011;12789;42.610;23.040;2023-07-13T15:48:42;9.02;;;3.30;;
10479;SDS011;12789;42.610;23.040;2023-07-13T15:51:11;12.35;;;3.55;;
10479;SDS011;12789;42.610;23.040;2023-07-13T15:53:39;8.30;;;3.75;;
10479;SDS011;12789;42.610;23.040;2023-07-13T15:56:11;14.88;;;3.75;;
10479;SDS011;12789;42.610;23.040;2023-07-13T15:58:46;8.15;;;3.38;;
10479;SDS011;12789;42.610;23.040;2023-07-13T16:01:12;10.02;;;3.53;;
10479;SDS011;12789;42.610;23.040;2023-07-13T16:03:40;7.18;;;3.35;;
10479;SDS011;12789;42.610;23.040;2023-07-13T16:06:12;7.13;;;3.75;;
10479;SDS011;12789;42.610;23.040;2023-07-13T16:08:39;8.98;;;3.42;;
10479;SDS011;12789;42.610;23.040;2023-07-13T16:11:07;5.50;;;3.58;;
10479;SDS011;12789;42.610;23.040;2023-07-13T16:13:39;5.35;;;3.70;;
10479;SDS011;12789;42.610;23.040;2023-07-13T16:16:10;6.85;;;3.45;;
10479;SDS011;12789;42.610;23.040;2023-07-13T16:18:37;6.15;;;3.80;;
10479;SDS011;12789;42.610;23.040;2023-07-13T16:24:15;10.48;;;3.80;;
10479;SDS011;12789;42.610;23.040;2023-07-13T16:26:45;6.00;;;3.20;;
10479;SDS011;12789;42.610;23.040;2023-07-13T16:29:15;3.80;;;2.92;;
10479;SDS011;12789;42.610;23.040;2023-07-13T16:31:56;5.63;;;3.30;;
10479;SDS011;12789;42.610;23.040;2023-07-13T16:34:23;8.77;;;3.28;;
10479;SDS011;12789;42.610;23.040;2023-07-13T16:47:33;6.63;;;3.20;;
10479;SDS011;12789;42.610;23.040;2023-07-13T16:52:48;11.77;;;3.28;;
10479;SDS011;12789;42.610;23.040;2023-07-13T16:55:16;7.85;;;3.30;;
10479;SDS011;12789;42.610;23.040;2023-07-13T16:57:48;7.45;;;3.55;;
10479;SDS011;12789;42.610;23.040;2023-07-13T17:00:23;6.50;;;3.50;;
10479;SDS011;12789;42.610;23.040;2023-07-13T17:02:57;5.85;;;3.55;;
10479;SDS011;12789;42.610;23.040;2023-07-13T17:05:28;6.15;;;3.50;;
10479;SDS011;12789;42.610;23.040;2023-07-13T17:07:58;8.52;;;3.88;;
10479;SDS011;12789;42.610;23.040;2023-07-13T17:10:30;6.95;;;3.65;;
10479;SDS011;12789;42.610;23.040;2023-07-13T17:13:00;5.53;;;3.30;;
10479;SDS011;12789;42.610;23.040;2023-07-13T17:15:28;7.05;;;3.50;;
10479;SDS011;12789;42.610;23.040;2023-07-13T17:17:57;7.03;;;3.60;;
10479;SDS011;12789;42.610;23.040;2023-07-13T17:20:33;7.00;;;4.05;;
10479;SDS011;12789;42.610;23.040;2023-07-13T17:23:10;6.57;;;3.87;;
10479;SDS011;12789;42.610;23.040;2023-07-13T17:25:45;8.70;;;3.70;;
10479;SDS011;12789;42.610;23.040;2023-07-13T17:28:14;8.98;;;3.53;;
10479;SDS011;12789;42.610;23.040;2023-07-13T17:30:46;7.10;;;3.60;;
10479;SDS011;12789;42.610;23.040;2023-07-13T17:33:31;7.25;;;3.15;;
10479;SDS011;12789;42.610;23.040;2023-07-13T17:36:00;7.22;;;3.92;;
10479;SDS011;12789;42.610;23.040;2023-07-13T17:38:35;10.60;;;3.58;;
10479;SDS011;12789;42.610;23.040;2023-07-13T17:41:07;5.80;;;3.33;;
10479;SDS011;12789;42.610;23.040;2023-07-13T17:43:41;5.30;;;3.40;;
10479;SDS011;12789;42.610;23.040;2023-07-13T17:46:10;5.32;;;3.80;;
10479;SDS011;12789;42.610;23.040;2023-07-13T17:48:55;6.95;;;3.60;;
10479;SDS011;12789;42.610;23.040;2023-07-13T17:51:22;9.15;;;3.67;;
10479;SDS011;12789;42.610;23.040;2023-07-13T17:53:51;9.65;;;3.63;;
10479;SDS011;12789;42.610;23.040;2023-07-13T17:56:19;9.18;;;3.80;;
10479;SDS011;12789;42.610;23.040;2023-07-13T17:58:48;7.60;;;3.50;;
10479;SDS011;12789;42.610;23.040;2023-07-13T18:01:16;7.97;;;3.70;;
10479;SDS011;12789;42.610;23.040;2023-07-13T18:03:43;8.27;;;3.78;;